MDT,Max TemperatureF,Mean TemperatureF,Min TemperatureF,Max Dew PointF,MeanDew PointF,Min DewpointF,Max Humidity, Mean Humidity, Min Humidity, Max Sea Level PressureIn, Mean Sea Level PressureIn, Min Sea Level PressureIn, Max VisibilityMiles, Mean VisibilityMiles, Min VisibilityMiles, Max Wind SpeedMPH, Mean Wind SpeedMPH, Max Gust SpeedMPH,PrecipitationIn, CloudCover, Events, WindDirDegrees
2013-7-1,87,72,57,55,49,40,78,50,19,30.37,30.31,30.19,10,10,5,25,14,32,0.05,1,Rain-Thunderstorm,144
2013-7-2,84,70,56,50,46,40,69,46,22,30.38,30.29,30.15,10,10,7,22,13,34,0.06,2,Rain,154
2013-7-3,89,72,56,55,45,27,95,48,11,30.31,30.20,30.06,10,10,3,15,9,26,0.01,2,Rain-Thunderstorm,125
2013-7-4,88,71,54,53,44,32,80,43,15,30.19,30.13,30.06,10,10,10,18,6,25,0.00,1,Thunderstorm,158
2013-7-5,85,74,61,58,48,41,85,44,21,30.26,30.13,30.05,10,10,3,22,5,39,0.34,3,Rain-Thunderstorm,287
2013-7-6,86,70,55,60,52,41,95,58,21,30.26,30.17,30.07,10,10,10,24,5,34,0.04,3,Rain-Thunderstorm,300
2013-7-7,89,72,54,59,52,39,96,58,17,30.26,30.20,30.12,10,10,1,14,4,18,0.37,2,Rain-Thunderstorm,207
2013-7-8,89,74,59,59,52,41,86,55,21,30.42,30.31,30.23,10,10,10,16,6,26,0.00,3,Rain-Thunderstorm,340
2013-7-9,92,76,60,59,50,35,90,51,14,30.40,30.33,30.24,10,10,10,14,7,20,0.00,3,Rain-Thunderstorm,83
2013-7-10,88,75,62,57,49,41,77,41,19,30.35,30.29,30.20,10,10,10,18,6,23,0.00,1,,144
2013-7-11,85,74,62,60,53,47,88,52,27,30.33,30.25,30.16,10,10,5,17,8,28,0.26,3,Rain-Thunderstorm,154
2013-7-12,84,72,61,61,53,40,94,56,21,30.32,30.24,30.16,10,10,7,16,4,23,0.17,4,Rain-Thunderstorm,296
2013-7-13,82,68,54,58,54,44,97,68,27,30.32,30.28,30.24,10,10,10,20,5,26,0.01,2,Rain-Thunderstorm,310
2013-7-14,87,72,58,60,52,43,94,56,21,30.32,30.25,30.12,10,10,10,26,6,36,0.12,3,Rain-Thunderstorm,297
2013-7-15,71,65,59,60,57,53,95,78,58,30.32,30.25,30.20,10,10,5,22,8,30,0.17,6,Rain-Thunderstorm,142
2013-7-16,78,66,55,54,47,40,88,54,29,30.37,30.29,30.24,10,10,10,21,12,29,0.00,4,Rain,143
2013-7-17,77,67,57,52,47,40,77,52,28,30.44,30.39,30.32,10,10,10,21,14,29,0.00,2,,140
2013-7-18,80,68,56,52,49,45,83,54,30,30.42,30.34,30.24,10,10,10,16,9,25,0.00,0,,147
2013-7-19,86,72,57,56,50,46,82,51,24,30.31,30.25,30.14,10,10,10,20,6,28,0.00,2,Rain-Thunderstorm,132
2013-7-20,81,70,58,57,53,46,91,58,30,30.29,30.20,30.11,10,10,10,14,4,20,0.00,2,Thunderstorm,246
2013-7-21,86,72,58,59,50,36,87,54,18,30.28,30.18,30.11,10,10,7,18,3,28,0.07,3,Rain-Thunderstorm,148
2013-7-22,83,70,57,59,51,44,94,57,26,30.26,30.21,30.17,10,10,10,16,5,24,0.00,2,Thunderstorm,297
2013-7-23,89,72,55,54,47,39,84,46,18,30.28,30.23,30.15,10,10,10,17,4,24,0.00,2,Thunderstorm,343
2013-7-24,82,70,57,59,52,46,87,60,30,30.33,30.27,30.21,10,10,2,25,8,44,0.28,2,Rain-Thunderstorm,148
2013-7-25,83,71,59,58,55,49,87,63,31,30.34,30.30,30.24,10,10,10,13,7,17,0.00,1,Thunderstorm,178
2013-7-26,85,72,59,58,54,47,86,60,30,30.43,30.37,30.31,10,10,10,25,8,34,0.00,1,Rain-Thunderstorm,160
2013-7-27,79,68,56,57,53,46,89,62,33,30.43,30.31,30.20,10,10,10,20,11,26,0.02,3,Rain-Thunderstorm,161
2013-7-28,83,69,55,55,51,42,90,55,24,30.23,30.18,30.11,10,10,10,25,5,33,0.00,4,Rain-Thunderstorm,310
2013-7-29,84,68,51,52,45,35,90,47,17,30.35,30.26,30.21,10,10,10,20,6,25,0.00,2,,308
2013-7-30,87,70,52,47,41,34,73,38,16,30.45,30.39,30.34,10,10,10,13,4,,0.00,1,,314
2013-7-31,89,72,55,49,41,35,63,35,15,30.46,30.39,30.32,10,10,4,20,7,31,0.00,3,Rain,294